Time;durP1;ratioP1;P1;durP2;ratioP2;P2;SDS_P1;SDS_P2;PMS_P1;PMS_P2;Temp;Humidity;BMP_temperature;BMP_pressure;BME280_temperature;BME280_humidity;BME280_pressure;Samples;Min_cycle;Max_cycle;Signal;HPM_P1;HPM_P2
2022/10/29 00:01:29;;;;;;;23.52;7.53;;;13.50;99.90;;;;;;5036756;28;20056;-77
2022/10/29 00:03:57;;;;;;;31.85;7.40;;;13.40;99.90;;;;;;5060670;28;20048;-77
2022/10/29 00:06:27;;;;;;;37.83;8.93;;;13.60;99.90;;;;;;5066735;28;20020;-77
2022/10/29 00:08:55;;;;;;;31.08;7.90;;;13.80;99.90;;;;;;5059906;28;20032;-78
2022/10/29 00:11:21;;;;;;;24.83;6.47;;;13.70;99.90;;;;;;5047365;28;20044;-77
2022/10/29 00:13:52;;;;;;;18.58;6.32;;;13.90;99.90;;;;;;5066865;28;20219;-76
2022/10/29 00:16:21;;;;;;;31.20;7.88;;;13.70;99.90;;;;;;5045830;28;20048;-78
2022/10/29 00:18:52;;;;;;;31.05;8.45;;;13.50;99.90;;;;;;5080634;28;20031;-76
2022/10/29 00:21:20;;;;;;;27.58;8.38;;;13.50;99.90;;;;;;5046306;28;20040;-74
2022/10/29 00:24:39;;;;;;;;;;;;;;;;;;;;;
2022/10/29 00:27:08;;;;;;;22.77;7.15;;;13.50;99.90;;;;;;5069661;28;20628;-75
2022/10/29 00:29:34;;;;;;;18.73;7.43;;;13.50;99.90;;;;;;5047267;28;20040;-76
2022/10/29 00:32:02;;;;;;;24.50;7.55;;;13.50;99.90;;;;;;5050585;28;20036;-78
2022/10/29 00:34:33;;;;;;;19.98;7.05;;;13.50;99.90;;;;;;5065716;28;20028;-75
2022/10/29 00:37:46;;;;;;;;;;;;;;;;;;;;;
2022/10/29 00:40:18;;;;;;;32.97;8.30;;;12.90;99.90;;;;;;5046223;28;20063;-75
2022/10/29 00:43:13;;;;;;;22.92;7.05;;;11.80;99.90;;;;;;5044941;28;20034;-79
2022/10/29 00:46:37;;;;;;;;;;;;;;;;;;;;;
2022/10/29 00:49:40;;;;;;;28.73;7.68;;;13.80;99.90;;;;;;5059983;28;20109;-78
2022/10/29 00:52:20;;;;;;;29.45;7.45;;;11.70;99.90;;;;;;5052934;28;20036;-76
2022/10/29 00:57:49;;;;;;;16.70;6.60;;;12.90;99.90;;;;;;5065982;28;20100;-78
2022/10/29 01:00:37;;;;;;;22.88;7.80;;;13.10;99.90;;;;;;5102914;28;20071;-78
2022/10/29 01:03:12;;;;;;;15.20;6.53;;;13.00;99.90;;;;;;5069815;28;20077;-79
2022/10/29 01:06:17;;;;;;;;;;;;;;;;;;;;;
2022/10/29 01:09:30;;;;;;;30.55;8.65;;;13.10;99.90;;;;;;5077839;28;20032;-78
2022/10/29 01:12:11;;;;;;;31.40;7.15;;;14.00;99.90;;;;;;5097840;28;20032;-76
2022/10/29 01:15:06;;;;;;;27.50;8.77;;;11.50;99.90;;;;;;5087035;28;20035;-75
2022/10/29 01:17:45;;;;;;;25.65;8.00;;;13.20;99.90;;;;;;5061523;28;20454;-76
2022/10/29 01:20:51;;;;;;;24.33;7.78;;;13.40;99.90;;;;;;5103140;28;20039;-76
2022/10/29 01:23:22;;;;;;;32.45;9.02;;;12.90;99.90;;;;;;5083573;28;20032;-77
2022/10/29 01:26:02;;;;;;;39.45;9.30;;;13.40;99.90;;;;;;5083602;28;20042;-79
2022/10/29 01:28:40;;;;;;;33.05;8.48;;;12.90;99.90;;;;;;5093539;28;20055;-77
2022/10/29 01:31:31;;;;;;;29.70;7.78;;;13.20;99.90;;;;;;5071593;28;20257;-78
2022/10/29 01:34:35;;;;;;;27.20;8.63;;;13.40;99.90;;;;;;5097709;28;20036;-79
2022/10/29 01:37:24;;;;;;;31.73;8.82;;;14.40;99.90;;;;;;5003995;28;20176;-77
2022/10/29 01:40:18;;;;;;;34.00;8.18;;;13.30;99.90;;;;;;5086260;28;20039;-78
2022/10/29 01:43:05;;;;;;;40.60;7.88;;;13.50;99.90;;;;;;5083061;28;20028;-78
2022/10/29 01:46:21;;;;;;;39.65;9.07;;;13.20;99.90;;;;;;5100527;28;20051;-77
2022/10/29 01:48:58;;;;;;;46.20;9.13;;;13.40;99.90;;;;;;5018156;28;20059;-76
2022/10/29 01:51:33;;;;;;;75.78;9.98;;;13.50;99.90;;;;;;5082232;28;20035;-77
2022/10/29 01:54:11;;;;;;;70.45;10.20;;;13.20;99.90;;;;;;5096571;28;20210;-78
2022/10/29 01:56:42;;;;;;;81.63;11.15;;;13.20;99.90;;;;;;5101906;28;20031;-78
2022/10/29 01:59:30;;;;;;;65.53;10.07;;;15.10;99.90;;;;;;5084045;28;20031;-78
2022/10/29 02:02:16;;;;;;;72.25;10.77;;;13.50;99.90;;;;;;5080345;28;20028;-78
2022/10/29 02:05:15;;;;;;;87.15;9.90;;;13.50;99.90;;;;;;5087926;28;20104;-77
2022/10/29 02:07:50;;;;;;;91.43;10.88;;;13.30;99.90;;;;;;5084105;28;20063;-76
2022/10/29 02:10:37;;;;;;;102.53;12.38;;;13.50;99.90;;;;;;5081341;28;20083;-78
2022/10/29 02:13:06;;;;;;;125.38;11.75;;;13.30;99.90;;;;;;5091998;28;20078;-78
2022/10/29 02:15:47;;;;;;;113.88;12.50;;;11.80;99.90;;;;;;5087616;28;20043;-79
2022/10/29 02:21:09;;;;;;;57.05;10.00;;;13.30;99.90;;;;;;5080426;28;20039;-78
2022/10/29 02:23:38;;;;;;;60.22;9.30;;;13.30;99.90;;;;;;5035905;28;20069;-77
2022/10/29 02:26:13;;;;;;;53.92;9.43;;;12.60;99.90;;;;;;5068811;28;20094;-78
2022/10/29 02:29:01;;;;;;;;;;;;;;;;;;;;;
2022/10/29 02:31:30;;;;;;;80.50;10.52;;;13.50;99.90;;;;;;5055270;28;20273;-75
2022/10/29 02:34:03;;;;;;;69.57;10.70;;;12.60;99.90;;;;;;5088315;28;20020;-77
2022/10/29 02:36:29;;;;;;;45.17;8.73;;;13.50;99.90;;;;;;5088586;28;20325;-76
2022/10/29 02:38:54;;;;;;;78.78;10.75;;;13.40;99.90;;;;;;5078199;28;20073;-76
2022/10/29 02:41:20;;;;;;;37.33;7.53;;;13.20;99.90;;;;;;5090776;28;20336;-76
2022/10/29 02:43:46;;;;;;;82.30;10.05;;;13.50;99.90;;;;;;5084188;28;20319;-77
2022/10/29 02:46:17;;;;;;;61.42;9.73;;;13.20;99.90;;;;;;5073590;28;20035;-76
2022/10/29 02:48:43;;;;;;;65.03;9.38;;;13.40;99.90;;;;;;5086519;28;20040;-76
2022/10/29 02:51:17;;;;;;;67.68;10.00;;;13.20;99.90;;;;;;5077369;28;20089;-76
2022/10/29 02:53:43;;;;;;;48.95;9.80;;;13.30;99.90;;;;;;5067698;28;20070;-75
2022/10/29 02:56:20;;;;;;;49.50;9.13;;;13.50;99.90;;;;;;5097493;28;20323;-76
2022/10/29 02:58:45;;;;;;;62.55;8.95;;;12.10;99.90;;;;;;5087146;28;20319;-75
2022/10/29 03:01:11;;;;;;;88.60;10.95;;;13.30;99.90;;;;;;5082023;28;20063;-76
2022/10/29 03:03:37;;;;;;;40.53;8.32;;;12.50;99.90;;;;;;5088409;28;20299;-76
2022/10/29 03:06:03;;;;;;;72.57;9.35;;;13.20;99.90;;;;;;5053685;28;20031;-77
2022/10/29 03:08:29;;;;;;;38.40;8.20;;;13.30;99.90;;;;;;5067204;28;20046;-77
2022/10/29 03:10:55;;;;;;;38.80;7.82;;;13.00;99.90;;;;;;5080781;28;20094;-76
2022/10/29 03:13:23;;;;;;;58.95;10.43;;;11.90;99.90;;;;;;5077905;28;20135;-77
2022/10/29 03:15:49;;;;;;;50.53;8.82;;;13.20;99.90;;;;;;5080564;28;20044;-78
2022/10/29 03:18:15;;;;;;;74.45;9.77;;;11.30;99.90;;;;;;5084464;28;20050;-77
2022/10/29 03:20:42;;;;;;;59.30;8.95;;;15.00;99.90;;;;;;5080790;28;20048;-77
2022/10/29 03:23:07;;;;;;;58.00;9.73;;;13.40;99.90;;;;;;5079252;28;20261;-77
2022/10/29 03:25:33;;;;;;;44.47;8.38;;;13.40;99.90;;;;;;5070018;28;20023;-76
2022/10/29 03:27:59;;;;;;;74.00;9.85;;;12.10;99.90;;;;;;5099423;28;20042;-78
2022/10/29 03:30:27;;;;;;;86.07;10.75;;;13.50;99.90;;;;;;5085184;28;20028;-77
2022/10/29 03:32:53;;;;;;;54.35;8.60;;;13.40;99.90;;;;;;5063242;28;20024;-76
2022/10/29 03:35:19;;;;;;;43.72;7.70;;;13.60;99.90;;;;;;5084363;28;20026;-75
2022/10/29 03:37:48;;;;;;;75.47;9.45;;;13.20;99.90;;;;;;5099145;28;20641;-75
2022/10/29 03:40:14;;;;;;;76.40;8.68;;;13.30;99.90;;;;;;5087436;28;20228;-76
2022/10/29 03:42:40;;;;;;;63.40;8.43;;;13.10;99.90;;;;;;5077586;28;20074;-76
2022/10/29 03:45:06;;;;;;;38.50;7.72;;;13.10;99.90;;;;;;5079881;28;20071;-76
2022/10/29 03:47:32;;;;;;;33.38;6.60;;;13.10;99.90;;;;;;5074078;28;20027;-77
2022/10/29 03:49:58;;;;;;;31.88;6.93;;;13.40;99.90;;;;;;5050491;28;20241;-78
2022/10/29 03:52:32;;;;;;;26.17;5.70;;;13.40;99.90;;;;;;5064004;28;20039;-76
2022/10/29 03:55:01;;;;;;;71.18;8.98;;;13.10;99.90;;;;;;5087264;28;20035;-79
2022/10/29 03:57:27;;;;;;;56.65;7.35;;;13.30;99.90;;;;;;5066897;28;20028;-78
2022/10/29 03:59:53;;;;;;;35.72;7.10;;;13.10;99.90;;;;;;5084499;28;20058;-78
2022/10/29 04:02:22;;;;;;;74.30;9.32;;;13.20;99.90;;;;;;5077940;28;20080;-78
2022/10/29 04:04:50;;;;;;;62.10;9.70;;;13.10;99.90;;;;;;5090358;28;20035;-77
2022/10/29 04:07:16;;;;;;;58.65;10.00;;;13.40;99.90;;;;;;5080988;28;20027;-77
2022/10/29 04:09:41;;;;;;;113.60;12.35;;;14.20;99.90;;;;;;5057326;28;20044;-78
2022/10/29 04:12:08;;;;;;;146.40;13.95;;;13.30;99.90;;;;;;5090797;28;20035;-76
2022/10/29 04:14:34;;;;;;;30.33;8.15;;;13.10;99.90;;;;;;5103542;28;20077;-76
2022/10/29 04:16:59;;;;;;;90.85;10.80;;;15.00;99.90;;;;;;5064314;28;20094;-77
2022/10/29 04:19:25;;;;;;;81.63;10.73;;;13.40;99.90;;;;;;5074982;28;20043;-75
2022/10/29 04:21:51;;;;;;;39.40;8.15;;;13.50;99.90;;;;;;5079757;28;20043;-78
2022/10/29 04:24:17;;;;;;;35.05;8.63;;;13.20;99.90;;;;;;5088434;28;20038;-75
2022/10/29 04:26:43;;;;;;;31.80;7.13;;;13.30;99.90;;;;;;5085797;28;20042;-78
2022/10/29 04:29:09;;;;;;;44.65;7.72;;;13.50;99.90;;;;;;5085995;28;20068;-75
2022/10/29 04:31:36;;;;;;;73.25;9.60;;;13.10;99.90;;;;;;5066056;28;20052;-76
2022/10/29 04:34:02;;;;;;;74.43;9.93;;;13.30;99.90;;;;;;5082149;28;20043;-75
2022/10/29 04:36:28;;;;;;;83.85;10.63;;;13.40;99.90;;;;;;5063752;28;20091;-74
2022/10/29 04:38:54;;;;;;;93.10;11.32;;;13.10;99.90;;;;;;5071921;28;20357;-79
2022/10/29 04:41:20;;;;;;;44.38;9.35;;;13.10;99.90;;;;;;5054206;28;20108;-75
2022/10/29 04:43:46;;;;;;;78.78;10.52;;;13.40;99.90;;;;;;5096326;28;20027;-77
2022/10/29 04:46:11;;;;;;;76.28;10.45;;;13.90;99.90;;;;;;5065246;28;20433;-77
2022/10/29 04:48:37;;;;;;;70.35;11.05;;;13.50;99.90;;;;;;5062087;28;20060;-77
2022/10/29 04:51:03;;;;;;;55.75;10.13;;;13.20;99.90;;;;;;5066228;28;20322;-75
2022/10/29 04:53:29;;;;;;;69.00;10.10;;;13.30;99.90;;;;;;5089436;28;20032;-75
2022/10/29 04:56:04;;;;;;;39.42;8.48;;;13.60;99.90;;;;;;5094796;28;20344;-76
2022/10/29 04:58:30;;;;;;;36.50;8.13;;;13.50;99.90;;;;;;5085522;28;20085;-78
2022/10/29 05:01:04;;;;;;;45.88;9.07;;;13.50;99.90;;;;;;5063861;28;20253;-75
2022/10/29 05:03:34;;;;;;;31.48;7.68;;;14.00;99.90;;;;;;5090263;28;20153;-78
2022/10/29 05:06:04;;;;;;;31.20;7.25;;;13.30;99.90;;;;;;5070528;28;20121;-76
2022/10/29 05:08:30;;;;;;;44.92;7.53;;;13.50;99.90;;;;;;5072277;28;20048;-78
2022/10/29 05:10:56;;;;;;;75.70;9.23;;;13.30;99.90;;;;;;5085460;28;20034;-78
2022/10/29 05:13:25;;;;;;;75.18;9.68;;;13.60;99.90;;;;;;5083151;28;20036;-80
2022/10/29 05:15:51;;;;;;;89.03;9.93;;;13.20;99.90;;;;;;5069989;28;20031;-77
2022/10/29 05:18:17;;;;;;;65.80;9.45;;;13.20;99.90;;;;;;5071618;28;20040;-76
2022/10/29 05:20:45;;;;;;;76.93;10.52;;;13.20;99.90;;;;;;5071539;28;20023;-77
2022/10/29 05:23:11;;;;;;;41.85;9.07;;;15.60;99.90;;;;;;5080836;28;20043;-75
2022/10/29 05:25:39;;;;;;;54.15;9.35;;;13.60;99.90;;;;;;5088971;28;20061;-79
2022/10/29 05:28:08;;;;;;;45.33;8.73;;;13.60;99.90;;;;;;5084477;28;20073;-76
2022/10/29 05:30:34;;;;;;;41.47;8.35;;;13.30;99.90;;;;;;5070182;28;20095;-77
2022/10/29 05:33:07;;;;;;;63.38;8.93;;;13.70;99.90;;;;;;5076580;28;20262;-75
2022/10/29 05:35:54;;;;;;;50.25;9.20;;;14.30;99.90;;;;;;5072452;28;20035;-76
2022/10/29 05:38:20;;;;;;;27.38;7.55;;;12.30;99.90;;;;;;5059287;28;20044;-76
2022/10/29 05:40:45;;;;;;;27.77;7.93;;;11.60;99.90;;;;;;5090716;28;20031;-79
2022/10/29 05:43:13;;;;;;;43.70;9.07;;;13.70;99.90;;;;;;5064819;28;20226;-77
2022/10/29 05:45:39;;;;;;;52.72;8.73;;;13.50;99.90;;;;;;5087417;28;20032;-75
2022/10/29 05:48:05;;;;;;;23.67;8.52;;;13.20;99.90;;;;;;5076837;28;20034;-76
2022/10/29 05:50:31;;;;;;;20.85;7.80;;;13.40;99.90;;;;;;5105832;28;20035;-77
2022/10/29 05:53:03;;;;;;;12.95;5.88;;;13.50;99.90;;;;;;5075459;28;20039;-78
2022/10/29 05:55:30;;;;;;;19.98;7.60;;;13.60;99.90;;;;;;5096254;28;20035;-77
2022/10/29 05:58:01;;;;;;;25.83;8.13;;;11.70;99.90;;;;;;5099648;28;20043;-76
2022/10/29 06:00:29;;;;;;;30.90;8.95;;;13.30;99.90;;;;;;5085363;28;20044;-76
2022/10/29 06:02:58;;;;;;;12.57;6.28;;;13.60;99.90;;;;;;5078148;28;20081;-75
2022/10/29 06:05:24;;;;;;;12.93;7.03;;;13.20;99.90;;;;;;5074670;28;20069;-76
2022/10/29 06:07:58;;;;;;;39.45;8.05;;;13.50;99.90;;;;;;5102205;28;20023;-80
2022/10/29 06:10:26;;;;;;;23.45;7.38;;;13.70;99.90;;;;;;5099964;28;20218;-74
2022/10/29 06:12:52;;;;;;;44.10;7.90;;;13.20;99.90;;;;;;5085622;28;20056;-76
2022/10/29 06:15:19;;;;;;;22.17;6.57;;;13.40;99.90;;;;;;5102661;28;20036;-79
2022/10/29 06:17:45;;;;;;;29.02;6.68;;;13.70;99.90;;;;;;5068264;28;20040;-77
2022/10/29 06:20:13;;;;;;;27.65;7.55;;;13.20;99.90;;;;;;5068649;28;20113;-75
2022/10/29 06:22:38;;;;;;;20.63;6.43;;;13.70;99.90;;;;;;5087859;28;20027;-76
2022/10/29 06:25:04;;;;;;;20.83;6.63;;;13.30;99.90;;;;;;5088980;28;20103;-75
2022/10/29 06:27:30;;;;;;;24.85;5.93;;;13.30;99.90;;;;;;5072051;28;20381;-76
2022/10/29 06:29:56;;;;;;;30.85;6.05;;;13.20;99.90;;;;;;5087746;28;20043;-76
2022/10/29 06:32:21;;;;;;;54.88;6.90;;;13.50;99.90;;;;;;5086379;28;20027;-76
2022/10/29 06:34:47;;;;;;;29.17;6.93;;;13.20;99.90;;;;;;5069213;28;20066;-76
2022/10/29 06:37:14;;;;;;;32.47;7.72;;;13.20;99.90;;;;;;5085467;28;20035;-76
2022/10/29 06:39:39;;;;;;;54.22;8.73;;;13.40;99.90;;;;;;5097966;28;20202;-77
2022/10/29 06:42:05;;;;;;;45.08;8.98;;;13.60;99.90;;;;;;5078972;28;20027;-78
2022/10/29 06:44:31;;;;;;;46.75;9.70;;;13.80;99.90;;;;;;5073392;28;20063;-75
2022/10/29 06:46:56;;;;;;;52.63;8.20;;;13.30;99.90;;;;;;5088469;28;20039;-78
2022/10/29 06:49:22;;;;;;;38.70;8.52;;;13.80;99.90;;;;;;5085370;28;20024;-74
2022/10/29 06:51:48;;;;;;;30.60;7.18;;;13.30;99.90;;;;;;5088843;28;20356;-79
2022/10/29 06:54:13;;;;;;;49.35;7.90;;;13.80;99.90;;;;;;5074961;28;20035;-77
2022/10/29 06:56:39;;;;;;;30.23;6.85;;;13.40;99.90;;;;;;5080023;28;20030;-75
2022/10/29 06:59:05;;;;;;;26.75;6.47;;;13.40;99.90;;;;;;5089313;28;20158;-75
2022/10/29 07:01:32;;;;;;;43.80;7.60;;;13.50;99.90;;;;;;5080868;28;20044;-75
2022/10/29 07:04:01;;;;;;;41.13;7.90;;;13.60;99.90;;;;;;5094912;28;20055;-77
2022/10/29 07:06:31;;;;;;;47.60;8.07;;;13.60;99.90;;;;;;5084539;28;20032;-76
2022/10/29 07:08:57;;;;;;;36.90;8.02;;;13.60;99.90;;;;;;5070126;28;20404;-75
2022/10/29 07:11:22;;;;;;;41.20;7.82;;;13.50;99.90;;;;;;5092589;28;20040;-76
2022/10/29 07:13:48;;;;;;;37.95;7.35;;;13.80;99.90;;;;;;5095001;28;20234;-70
2022/10/29 07:16:14;;;;;;;33.35;7.43;;;14.10;99.90;;;;;;5089567;28;20058;-75
2022/10/29 07:18:39;;;;;;;68.57;8.88;;;14.20;99.90;;;;;;5095336;28;20077;-76
2022/10/29 07:21:05;;;;;;;33.47;6.40;;;14.10;99.90;;;;;;5085177;28;20210;-75
2022/10/29 07:23:31;;;;;;;50.67;8.15;;;14.20;99.90;;;;;;5070777;28;20318;-78
2022/10/29 07:25:56;;;;;;;39.78;7.57;;;13.70;99.90;;;;;;5086761;28;20403;-73
2022/10/29 07:28:24;;;;;;;43.78;7.95;;;13.80;99.90;;;;;;5073827;28;20037;-75
2022/10/29 07:30:50;;;;;;;45.00;7.97;;;14.30;99.90;;;;;;5086887;28;20332;-75
2022/10/29 07:33:16;;;;;;;37.45;8.20;;;14.20;99.90;;;;;;5085005;28;20028;-74
2022/10/29 07:35:43;;;;;;;64.70;8.45;;;14.20;99.90;;;;;;5088489;28;20036;-74
2022/10/29 07:38:10;;;;;;;32.67;7.82;;;14.30;99.90;;;;;;5072008;28;20032;-77
2022/10/29 07:40:38;;;;;;;25.25;8.27;;;14.20;99.90;;;;;;5084951;28;20020;-77
2022/10/29 07:43:04;;;;;;;30.50;7.97;;;14.30;99.90;;;;;;5097342;28;20043;-77
2022/10/29 07:45:29;;;;;;;33.33;8.38;;;14.30;99.90;;;;;;5087504;28;20032;-77
2022/10/29 07:48:00;;;;;;;39.20;7.85;;;14.40;99.90;;;;;;5056322;28;20024;-78
2022/10/29 07:50:26;;;;;;;50.25;9.27;;;13.80;99.90;;;;;;5074429;28;20027;-76
2022/10/29 07:52:52;;;;;;;39.42;8.80;;;13.90;99.90;;;;;;5088491;28;20082;-74
2022/10/29 07:55:17;;;;;;;54.72;9.98;;;14.10;99.90;;;;;;5071270;28;20028;-72
2022/10/29 07:57:43;;;;;;;54.95;9.88;;;14.50;99.90;;;;;;5077249;28;20345;-76
2022/10/29 08:00:11;;;;;;;92.45;10.88;;;14.20;99.90;;;;;;5074548;28;20081;-75
2022/10/29 08:02:38;;;;;;;62.17;11.05;;;14.60;99.90;;;;;;5078439;28;20294;-73
2022/10/29 08:05:04;;;;;;;54.72;10.73;;;14.30;99.90;;;;;;5064315;28;20039;-74
2022/10/29 08:07:29;;;;;;;83.43;12.02;;;14.10;99.90;;;;;;5085030;28;20032;-73
2022/10/29 08:09:55;;;;;;;80.40;12.73;;;14.10;99.90;;;;;;5075172;28;20042;-74
2022/10/29 08:12:21;;;;;;;84.80;11.25;;;14.10;99.90;;;;;;5096279;28;20042;-76
2022/10/29 08:14:46;;;;;;;54.10;11.15;;;14.70;99.90;;;;;;5090069;28;20024;-74
2022/10/29 08:17:12;;;;;;;49.13;11.32;;;14.80;99.90;;;;;;5057789;28;20081;-74
2022/10/29 08:19:38;;;;;;;42.80;9.68;;;14.10;99.90;;;;;;5110757;28;20035;-76
2022/10/29 08:22:03;;;;;;;44.83;10.27;;;14.20;99.90;;;;;;5088552;28;20027;-74
2022/10/29 08:24:29;;;;;;;70.25;11.25;;;14.10;99.90;;;;;;5086893;28;20036;-74
2022/10/29 08:26:55;;;;;;;44.78;10.82;;;14.50;99.90;;;;;;5093260;28;20122;-73
2022/10/29 08:29:20;;;;;;;33.83;10.18;;;14.20;99.90;;;;;;5060000;28;20034;-75
2022/10/29 08:31:46;;;;;;;65.68;13.45;;;14.80;99.90;;;;;;5071696;28;20330;-73
2022/10/29 08:34:12;;;;;;;40.60;11.88;;;14.20;99.90;;;;;;5062619;28;20028;-75
2022/10/29 08:36:37;;;;;;;53.53;12.00;;;14.30;99.90;;;;;;5089408;28;20106;-73
2022/10/29 08:39:03;;;;;;;48.80;12.88;;;14.80;99.90;;;;;;5076367;28;20207;-74
2022/10/29 08:41:42;;;;;;;48.35;13.18;;;15.10;99.90;;;;;;5112544;28;20306;-75
2022/10/29 08:44:24;;;;;;;50.30;12.88;;;14.70;99.90;;;;;;5094106;28;20042;-75
2022/10/29 08:47:03;;;;;;;43.60;13.45;;;15.00;99.90;;;;;;5086589;28;20063;-73
2022/10/29 08:49:40;;;;;;;60.05;15.43;;;15.00;99.90;;;;;;5093456;28;20048;-74
2022/10/29 08:52:10;;;;;;;60.45;15.65;;;15.10;99.90;;;;;;5089463;28;20027;-72
2022/10/29 08:54:40;;;;;;;56.72;16.35;;;14.70;99.90;;;;;;5089362;28;20068;-75
2022/10/29 08:57:18;;;;;;;45.38;15.90;;;15.00;99.90;;;;;;5081456;28;20028;-74
2022/10/29 09:00:14;;;;;;;59.42;16.98;;;14.50;99.90;;;;;;5097792;28;20060;-74
2022/10/29 09:02:40;;;;;;;56.95;16.55;;;14.60;99.90;;;;;;5088686;28;20051;-76
2022/10/29 09:05:14;;;;;;;51.67;16.13;;;15.10;99.90;;;;;;5079952;28;20080;-76
2022/10/29 09:07:53;;;;;;;52.28;17.35;;;14.60;99.90;;;;;;5088966;28;20369;-75
2022/10/29 09:10:35;;;;;;;56.63;18.13;;;14.70;99.90;;;;;;5085456;28;20044;-74
2022/10/29 09:13:20;;;;;;;64.35;18.27;;;14.60;99.90;;;;;;5081979;28;20035;-75
2022/10/29 09:16:32;;;;;;;55.60;18.23;;;15.20;99.90;;;;;;5085380;28;20106;-77
2022/10/29 09:19:12;;;;;;;52.97;18.20;;;15.00;99.90;;;;;;5014915;28;20153;-74
2022/10/29 09:21:55;;;;;;;49.50;18.17;;;14.70;99.90;;;;;;5002481;28;20048;-77
2022/10/29 09:24:39;;;;;;;44.42;18.42;;;14.90;99.90;;;;;;5063642;28;20310;-69
2022/10/29 09:27:18;;;;;;;46.25;19.13;;;14.80;99.90;;;;;;5065584;28;20245;-76
2022/10/29 09:29:56;;;;;;;46.45;18.98;;;15.00;99.90;;;;;;5082730;28;20094;-76
2022/10/29 09:32:38;;;;;;;48.53;19.42;;;14.90;99.90;;;;;;5064676;28;20039;-76
2022/10/29 09:35:13;;;;;;;43.38;19.70;;;14.90;99.90;;;;;;5090750;28;20036;-76
2022/10/29 09:37:51;;;;;;;48.70;19.15;;;14.80;99.90;;;;;;5101050;28;20039;-76
2022/10/29 09:40:34;;;;;;;57.13;20.17;;;15.00;99.90;;;;;;5079635;28;20087;-76
2022/10/29 09:43:24;;;;;;;44.20;18.85;;;15.40;99.90;;;;;;5085591;28;20047;-76
2022/10/29 09:45:56;;;;;;;43.60;19.63;;;15.40;99.90;;;;;;5084826;28;20093;-76
2022/10/29 09:48:50;;;;;;;36.05;17.80;;;15.40;99.90;;;;;;5068272;28;20035;-76
2022/10/29 09:51:41;;;;;;;43.03;18.73;;;15.20;99.90;;;;;;5085380;28;20089;-77
2022/10/29 09:54:07;;;;;;;39.20;18.35;;;15.30;99.90;;;;;;5095113;28;20113;-76
2022/10/29 09:56:32;;;;;;;41.60;19.35;;;15.20;99.90;;;;;;5064509;28;20031;-75
2022/10/29 09:59:16;;;;;;;40.40;18.48;;;15.50;99.90;;;;;;5067330;28;20393;-76
2022/10/29 10:01:42;;;;;;;37.88;19.23;;;15.60;99.90;;;;;;5084724;28;20044;-76
2022/10/29 10:04:31;;;;;;;43.58;20.13;;;15.50;99.90;;;;;;5051756;28;20036;-76
2022/10/29 10:07:01;;;;;;;41.55;18.83;;;15.60;99.90;;;;;;5076912;28;20035;-77
2022/10/29 10:09:27;;;;;;;37.08;20.00;;;15.70;99.90;;;;;;5072601;28;20046;-76
2022/10/29 10:11:57;;;;;;;39.85;19.63;;;15.40;99.90;;;;;;5047454;28;20025;-77
2022/10/29 10:14:25;;;;;;;46.40;19.35;;;15.60;99.90;;;;;;5039578;28;20255;-77
2022/10/29 10:17:01;;;;;;;41.65;18.58;;;15.90;99.90;;;;;;5085290;28;20035;-76
2022/10/29 10:19:30;;;;;;;43.40;20.17;;;15.50;99.90;;;;;;5077406;28;20138;-75
2022/10/29 10:21:58;;;;;;;39.38;21.23;;;15.70;99.90;;;;;;5065938;28;20040;-77
2022/10/29 10:24:35;;;;;;;42.38;20.48;;;15.80;99.90;;;;;;5079064;28;20311;-77
2022/10/29 10:27:18;;;;;;;34.95;19.52;;;16.20;99.90;;;;;;5081207;28;20395;-77
2022/10/29 10:30:04;;;;;;;35.00;18.30;;;15.80;99.90;;;;;;5084436;28;20027;-76
2022/10/29 10:32:31;;;;;;;31.75;18.05;;;15.70;99.90;;;;;;5081944;28;20044;-76
2022/10/29 10:34:56;;;;;;;30.98;16.85;;;16.30;99.90;;;;;;5056855;28;20081;-71
2022/10/29 10:37:23;;;;;;;28.85;16.60;;;16.30;99.90;;;;;;5082235;28;20032;-75
2022/10/29 10:40:04;;;;;;;29.17;15.98;;;16.00;99.90;;;;;;5069800;28;20166;-71
2022/10/29 10:42:33;;;;;;;32.20;16.67;;;16.50;99.90;;;;;;5062616;28;20032;-75
2022/10/29 10:45:04;;;;;;;29.00;16.35;;;16.20;99.90;;;;;;5057080;28;20051;-74
2022/10/29 10:47:35;;;;;;;29.55;16.13;;;16.70;99.90;;;;;;5064561;28;20042;-74
2022/10/29 10:50:31;;;;;;;28.42;15.68;;;16.90;99.90;;;;;;5040713;28;20040;-75
2022/10/29 10:53:01;;;;;;;27.70;15.13;;;16.40;99.90;;;;;;5089759;28;20137;-73
2022/10/29 10:55:36;;;;;;;25.27;15.82;;;17.10;99.90;;;;;;5083024;28;20059;-73
2022/10/29 10:58:35;;;;;;;26.38;14.48;;;16.70;99.90;;;;;;5067705;28;20028;-75
2022/10/29 11:01:13;;;;;;;24.52;15.05;;;17.20;99.90;;;;;;5063311;28;20084;-74
2022/10/29 11:03:45;;;;;;;25.40;14.82;;;17.20;99.90;;;;;;5048008;28;20071;-76
2022/10/29 11:06:16;;;;;;;21.35;15.00;;;16.80;99.90;;;;;;5063585;28;20044;-72
2022/10/29 11:08:56;;;;;;;26.58;14.52;;;16.90;99.90;;;;;;5052004;28;20036;-73
2022/10/29 11:11:29;;;;;;;25.50;14.10;;;17.20;99.90;;;;;;5062639;28;20071;-74
2022/10/29 11:13:59;;;;;;;19.45;13.80;;;17.30;99.90;;;;;;5063232;28;20036;-74
2022/10/29 11:16:37;;;;;;;22.00;12.75;;;17.40;99.90;;;;;;5062048;28;20246;-74
2022/10/29 11:19:29;;;;;;;21.15;12.98;;;17.50;99.90;;;;;;5062807;28;20092;-74
2022/10/29 11:22:31;;;;;;;19.35;11.43;;;17.40;99.90;;;;;;5066265;28;20083;-76
2022/10/29 11:25:03;;;;;;;21.42;11.48;;;17.20;99.90;;;;;;5039364;28;20059;-74
2022/10/29 11:28:06;;;;;;;20.70;10.73;;;17.40;99.90;;;;;;5046165;28;20052;-75
2022/10/29 11:30:39;;;;;;;17.75;10.63;;;17.10;99.90;;;;;;5062944;28;20024;-75
2022/10/29 11:33:26;;;;;;;15.23;10.40;;;17.60;99.90;;;;;;5063591;28;20046;-74
2022/10/29 11:36:13;;;;;;;19.05;11.18;;;17.30;99.90;;;;;;5069003;28;20032;-74
2022/10/29 11:38:55;;;;;;;17.55;10.52;;;17.60;99.90;;;;;;5046188;28;20040;-76
2022/10/29 11:41:59;;;;;;;21.13;9.73;;;17.40;99.90;;;;;;5063926;28;20032;-73
2022/10/29 11:44:25;;;;;;;20.73;10.18;;;17.80;99.90;;;;;;5016490;28;20038;-76
2022/10/29 11:46:58;;;;;;;15.65;8.65;;;18.00;99.90;;;;;;5052806;28;20048;-76
2022/10/29 11:50:01;;;;;;;16.40;9.50;;;17.60;99.90;;;;;;5068510;28;20332;-75
2022/10/29 11:52:44;;;;;;;17.42;8.68;;;17.60;99.90;;;;;;5062995;28;20033;-77
2022/10/29 11:55:27;;;;;;;15.82;8.40;;;17.90;99.90;;;;;;5063889;28;20033;-75
2022/10/29 11:58:14;;;;;;;15.18;8.30;;;17.80;99.90;;;;;;5066563;28;20035;-72
2022/10/29 12:01:08;;;;;;;17.80;8.70;;;17.80;99.90;;;;;;5106911;28;20068;-74
2022/10/29 12:03:54;;;;;;;16.92;8.63;;;17.60;99.90;;;;;;5120033;28;20043;-76
2022/10/29 12:06:38;;;;;;;17.08;9.40;;;17.80;99.90;;;;;;5074757;27;20349;-73
2022/10/29 12:09:31;;;;;;;13.00;8.30;;;17.80;99.90;;;;;;5108091;28;20047;-74
2022/10/29 12:12:03;;;;;;;14.18;8.40;;;17.80;99.90;;;;;;5103259;28;20138;-77
2022/10/29 12:14:44;;;;;;;14.30;8.10;;;18.00;99.90;;;;;;5101288;28;20028;-74
2022/10/29 12:17:29;;;;;;;16.33;9.23;;;17.80;99.90;;;;;;5119765;28;20051;-74
2022/10/29 12:20:11;;;;;;;15.30;9.55;;;17.90;99.90;;;;;;5120329;28;20059;-74
2022/10/29 12:22:42;;;;;;;17.60;10.23;;;17.80;99.90;;;;;;5102094;28;20097;-73
2022/10/29 12:25:26;;;;;;;16.75;10.55;;;17.80;99.90;;;;;;5110979;28;20288;-75
2022/10/29 12:28:18;;;;;;;20.25;11.38;;;17.80;99.90;;;;;;5110747;27;20100;-74
2022/10/29 12:31:13;;;;;;;16.35;10.68;;;17.90;99.90;;;;;;5123362;27;20046;-74
2022/10/29 12:33:47;;;;;;;22.45;12.15;;;17.80;99.90;;;;;;5096194;27;20089;-73
2022/10/29 12:36:18;;;;;;;22.17;11.93;;;18.00;99.90;;;;;;5110060;27;20038;-75
2022/10/29 12:38:51;;;;;;;21.95;11.52;;;17.90;99.90;;;;;;5099204;28;20039;-74
2022/10/29 12:41:31;;;;;;;19.23;11.35;;;18.10;99.90;;;;;;5119970;28;20077;-76
2022/10/29 12:44:15;;;;;;;18.77;11.13;;;18.20;99.90;;;;;;5119969;28;20039;-73
2022/10/29 12:46:56;;;;;;;17.60;11.90;;;18.30;99.90;;;;;;5103686;28;20074;-75
2022/10/29 12:49:51;;;;;;;16.77;10.50;;;18.30;99.90;;;;;;5099139;28;20644;-76
2022/10/29 12:52:41;;;;;;;17.42;10.98;;;18.10;99.90;;;;;;5061293;28;20035;-75
2022/10/29 12:55:11;;;;;;;17.00;11.57;;;18.30;99.90;;;;;;5099531;28;20050;-78
2022/10/29 12:57:37;;;;;;;16.73;10.27;;;18.10;99.90;;;;;;5084436;28;20061;-76
2022/10/29 13:00:25;;;;;;;18.10;11.98;;;18.30;99.90;;;;;;5102401;28;20349;-73
2022/10/29 13:02:54;;;;;;;26.08;11.93;;;18.20;99.90;;;;;;5119635;28;20043;-78
2022/10/29 13:05:36;;;;;;;14.90;10.40;;;18.30;99.90;;;;;;5119692;28;20389;-74
2022/10/29 13:08:02;;;;;;;21.38;11.18;;;18.40;99.90;;;;;;5104578;28;20065;-75
2022/10/29 13:10:33;;;;;;;18.48;11.63;;;18.30;99.90;;;;;;5122701;28;20047;-77
2022/10/29 13:13:05;;;;;;;19.60;11.45;;;18.30;99.90;;;;;;5139905;28;20115;-78
2022/10/29 13:15:37;;;;;;;17.67;11.10;;;18.40;99.90;;;;;;5113359;28;20040;-76
2022/10/29 13:18:34;;;;;;;21.08;11.32;;;18.30;99.90;;;;;;5098967;28;20074;-73